createdAt,value
2022-12-19T00:00:18.126Z,71.82
2022-12-19T00:03:03.340Z,71.75
2022-12-19T00:05:49.351Z,71.87
2022-12-19T00:08:34.999Z,71.80
2022-12-19T00:11:22.674Z,72.25
2022-12-19T00:14:11.398Z,72.38
2022-12-19T00:16:56.814Z,72.05
2022-12-19T00:19:42.051Z,72.46
2022-12-19T00:22:27.448Z,71.84
2022-12-19T00:25:12.808Z,71.55
2022-12-19T00:27:58.260Z,71.73
2022-12-19T00:30:43.844Z,71.14
2022-12-19T00:33:29.731Z,71.04
2022-12-19T00:36:21.792Z,70.59
2022-12-19T00:39:10.209Z,70.63
2022-12-19T00:41:55.557Z,71.07
2022-12-19T00:44:41.209Z,71.21
2022-12-19T00:47:26.699Z,71.20
2022-12-19T00:50:11.920Z,70.36
2022-12-19T00:52:57.178Z,70.85
2022-12-19T00:55:42.655Z,71.35
2022-12-19T00:58:28.163Z,71.32
2022-12-19T01:01:20.199Z,71.39
2022-12-19T01:07:13.154Z,71.20
2022-12-19T01:09:58.213Z,71.57
2022-12-19T01:12:46.539Z,71.71
2022-12-19T01:15:32.125Z,71.86
2022-12-19T01:18:17.568Z,72.33
2022-12-19T01:21:08.254Z,72.01
2022-12-19T01:23:53.566Z,71.09
2022-12-19T01:26:38.503Z,71.06
2022-12-19T01:29:25.461Z,71.39
2022-12-19T01:32:10.910Z,71.26
2022-12-19T01:34:56.334Z,72.00
2022-12-19T01:37:41.625Z,71.28
2022-12-19T01:40:27.075Z,71.73
2022-12-19T01:43:14.059Z,72.24
2022-12-19T01:46:06.056Z,72.51
2022-12-19T01:48:51.281Z,72.12
2022-12-19T01:51:44.296Z,71.95
2022-12-19T01:54:38.554Z,71.63
2022-12-19T01:57:23.724Z,71.61
2022-12-19T02:00:09.964Z,71.72
2022-12-19T02:03:06.459Z,71.53
2022-12-19T02:05:55.126Z,72.23
2022-12-19T02:08:43.065Z,72.33
2022-12-19T02:11:28.309Z,72.06
2022-12-19T02:14:13.763Z,72.08
2022-12-19T02:17:17.149Z,71.70
2022-12-19T02:20:22.058Z,71.12
2022-12-19T02:23:46.271Z,71.08
2022-12-19T02:27:06.864Z,71.14
2022-12-19T02:29:59.517Z,70.98
2022-12-19T02:32:50.907Z,71.33
2022-12-19T02:36:02.482Z,71.03
2022-12-19T02:38:58.685Z,70.64
2022-12-19T02:41:52.778Z,70.40
2022-12-19T02:44:45.935Z,70.16
2022-12-19T02:47:32.650Z,70.39
2022-12-19T02:50:19.762Z,70.76
2022-12-19T02:53:05.142Z,70.38
2022-12-19T02:56:20.839Z,69.89
2022-12-19T02:59:21.401Z,69.75
2022-12-19T03:02:19.393Z,70.61
2022-12-19T03:05:33.726Z,70.12
2022-12-19T03:08:26.135Z,69.65
2022-12-19T03:11:14.779Z,70.01
2022-12-19T03:14:19.039Z,70.10
2022-12-19T03:17:08.749Z,69.43
2022-12-19T03:19:54.051Z,70.02
2022-12-19T03:22:39.263Z,70.26
2022-12-19T03:25:25.995Z,70.23
2022-12-19T03:28:15.981Z,69.83
2022-12-19T03:31:33.167Z,69.97
2022-12-19T03:34:24.883Z,70.47
2022-12-19T03:37:15.186Z,70.14
2022-12-19T03:40:05.605Z,69.85
2022-12-19T03:43:08.880Z,69.99
2022-12-19T03:46:04.306Z,69.42
2022-12-19T03:48:54.511Z,69.52
2022-12-19T03:51:59.104Z,70.21
2022-12-19T03:54:54.683Z,69.94
2022-12-19T03:58:02.042Z,70.06
2022-12-19T04:00:49.206Z,69.75
2022-12-19T04:03:34.587Z,70.05
2022-12-19T04:06:20.348Z,70.05
2022-12-19T04:09:06.228Z,70.27
2022-12-19T04:11:58.536Z,70.03
2022-12-19T04:14:44.348Z,70.05
2022-12-19T04:17:53.270Z,70.28
2022-12-19T04:20:44.087Z,69.96
2022-12-19T04:23:37.257Z,69.73
2022-12-19T04:26:24.353Z,69.91
2022-12-19T04:29:13.116Z,69.51
2022-12-19T04:31:59.099Z,69.81
2022-12-19T04:34:44.297Z,70.03
2022-12-19T04:37:31.124Z,70.33
2022-12-19T04:40:16.994Z,70.66
2022-12-19T04:43:02.358Z,70.36
2022-12-19T04:45:50.549Z,70.52
2022-12-19T04:48:39.305Z,70.54
2022-12-19T04:51:24.590Z,70.19
2022-12-19T04:54:09.629Z,70.61
2022-12-19T04:56:55.015Z,70.07
2022-12-19T04:59:40.216Z,70.51
2022-12-19T05:02:25.946Z,70.63
2022-12-19T05:05:11.522Z,70.56
2022-12-19T05:07:58.260Z,70.52
2022-12-19T05:10:43.895Z,70.88
2022-12-19T05:13:30.206Z,70.48
2022-12-19T05:16:16.088Z,70.53
2022-12-19T05:19:01.666Z,70.54
2022-12-19T05:21:46.777Z,71.00
2022-12-19T05:24:32.057Z,71.22
2022-12-19T05:27:17.908Z,70.89
2022-12-19T05:30:04.013Z,71.12
2022-12-19T05:32:49.160Z,70.73
2022-12-19T05:35:35.372Z,70.97
2022-12-19T05:38:20.670Z,70.64
2022-12-19T05:41:30.086Z,70.19
2022-12-19T05:44:15.290Z,70.01
2022-12-19T05:47:00.562Z,69.93
2022-12-19T05:49:45.724Z,70.26
2022-12-19T05:52:31.404Z,69.91
2022-12-19T05:55:17.610Z,69.57
2022-12-19T05:58:03.160Z,70.30
2022-12-19T06:00:48.468Z,70.15
2022-12-19T06:03:34.142Z,69.68
2022-12-19T06:06:21.914Z,70.62
2022-12-19T06:09:07.094Z,69.92
2022-12-19T06:11:52.832Z,69.71
2022-12-19T06:14:38.028Z,70.15
2022-12-19T06:17:23.367Z,69.78
2022-12-19T06:20:09.350Z,70.17
2022-12-19T06:22:54.372Z,70.45
2022-12-19T06:25:39.863Z,70.03
2022-12-19T06:28:27.129Z,69.84
2022-12-19T06:31:13.284Z,70.49
2022-12-19T06:33:58.539Z,70.11
2022-12-19T06:36:43.803Z,70.12
2022-12-19T06:39:29.128Z,69.95
2022-12-19T06:42:23.160Z,70.06
2022-12-19T06:45:09.088Z,70.23
2022-12-19T06:47:55.689Z,70.32
2022-12-19T06:50:41.363Z,69.26
2022-12-19T06:53:27.023Z,69.91
2022-12-19T06:56:15.387Z,69.63
2022-12-19T06:59:00.643Z,69.54
2022-12-19T07:02:00.660Z,69.35
2022-12-19T07:04:48.956Z,68.95
2022-12-19T07:07:34.336Z,69.55
2022-12-19T07:10:19.619Z,69.30
2022-12-19T07:13:05.441Z,68.71
2022-12-19T07:15:53.586Z,68.74
2022-12-19T07:18:40.837Z,68.50
2022-12-19T07:21:26.320Z,68.23
2022-12-19T07:24:14.821Z,68.22
2022-12-19T07:27:00.318Z,67.94
2022-12-19T07:29:45.558Z,68.25
2022-12-19T07:32:30.650Z,67.78
2022-12-19T07:35:16.633Z,67.44
2022-12-19T07:38:03.764Z,67.44
2022-12-19T07:40:49.024Z,67.12
2022-12-19T07:43:34.477Z,67.26
2022-12-19T07:46:20.099Z,67.21
2022-12-19T07:49:05.309Z,66.80
2022-12-19T07:51:50.847Z,66.95
2022-12-19T07:54:36.061Z,66.93
2022-12-19T07:57:21.245Z,66.71
2022-12-19T08:00:06.827Z,66.29
2022-12-19T08:03:01.244Z,65.60
2022-12-19T08:05:46.360Z,65.55
2022-12-19T08:08:32.699Z,65.61
2022-12-19T08:11:27.188Z,65.43
2022-12-19T08:14:12.328Z,65.14
2022-12-19T08:20:03.333Z,65.13
2022-12-19T08:22:49.089Z,65.14
2022-12-19T08:25:35.001Z,64.59
2022-12-19T08:28:20.265Z,64.28
2022-12-19T08:31:10.926Z,64.42
2022-12-19T08:33:57.555Z,64.68
2022-12-19T08:36:42.749Z,65.14
2022-12-19T08:39:28.163Z,64.28
2022-12-19T08:42:13.874Z,63.93
2022-12-19T08:44:59.182Z,63.48
2022-12-19T08:47:45.321Z,63.57
2022-12-19T08:50:31.585Z,63.52
2022-12-19T08:53:22.711Z,63.35
2022-12-19T08:56:17.548Z,63.67
2022-12-19T08:59:02.805Z,63.10
2022-12-19T09:01:48.247Z,63.10
2022-12-19T09:06:03.726Z,62.92
2022-12-19T09:07:39.659Z,62.67
2022-12-19T09:10:25.179Z,63.20
2022-12-19T09:13:10.385Z,62.43
2022-12-19T09:16:03.281Z,62.55
2022-12-19T09:18:50.964Z,63.15
2022-12-19T09:21:36.356Z,62.45
2022-12-19T09:24:21.868Z,63.08
2022-12-19T09:27:07.196Z,62.24
2022-12-19T09:29:52.260Z,62.35
2022-12-19T09:32:37.692Z,62.23
2022-12-19T09:35:28.464Z,62.79
2022-12-19T09:38:15.280Z,62.13
2022-12-19T09:41:00.693Z,62.16
2022-12-19T09:44:01.367Z,61.75
2022-12-19T09:46:54.811Z,61.62
2022-12-19T09:49:45.930Z,61.53
2022-12-19T09:52:41.149Z,61.80
2022-12-19T09:55:32.637Z,61.56
2022-12-19T09:58:23.827Z,61.13
2022-12-19T10:01:36.186Z,61.32
2022-12-19T10:04:25.042Z,60.59
2022-12-19T10:07:33.167Z,60.41
2022-12-19T10:12:34.597Z,59.84
2022-12-19T10:13:58.216Z,59.69
2022-12-19T10:17:08.911Z,60.32
2022-12-19T10:20:14.989Z,59.61
2022-12-19T10:23:55.765Z,59.19
2022-12-19T10:26:46.655Z,59.30
2022-12-19T10:29:41.167Z,59.36
2022-12-19T10:32:49.878Z,59.07
2022-12-19T10:35:42.297Z,59.55
2022-12-19T10:38:35.845Z,59.61
2022-12-19T10:41:32.266Z,59.42
2022-12-19T10:44:19.086Z,58.78
2022-12-19T10:47:04.782Z,59.06
2022-12-19T10:49:50.083Z,58.38
2022-12-19T10:52:52.348Z,58.58
2022-12-19T10:55:48.005Z,58.67
2022-12-19T10:58:36.185Z,58.72
2022-12-19T11:01:29.273Z,58.55
2022-12-19T11:04:33.178Z,58.23
2022-12-19T11:07:21.183Z,58.30
2022-12-19T11:11:43.164Z,59.44
2022-12-19T11:17:44.994Z,59.78
2022-12-19T11:22:07.693Z,59.83
2022-12-19T11:29:33.108Z,62.02
2022-12-19T11:29:35.141Z,60.82
2022-12-19T11:30:47.110Z,64.26
2022-12-19T11:33:11.298Z,66.73
2022-12-19T11:35:59.078Z,66.97
2022-12-19T11:38:53.987Z,67.91
2022-12-19T11:41:45.820Z,67.32
2022-12-19T11:44:46.629Z,68.85
2022-12-19T11:47:58.687Z,69.22
2022-12-19T11:50:58.859Z,70.56
2022-12-19T11:53:56.393Z,71.28
2022-12-19T11:56:41.907Z,72.53
2022-12-19T11:59:36.784Z,73.77
2022-12-19T12:02:40.752Z,72.99
2022-12-19T12:05:38.069Z,74.18
2022-12-19T12:13:36.176Z,74.79
2022-12-19T12:19:46.880Z,76.24
2022-12-19T12:29:31.010Z,77.28
2022-12-19T12:31:05.151Z,79.34
2022-12-19T12:31:22.908Z,79.26
2022-12-19T12:31:42.233Z,81.00
2022-12-19T12:31:50.062Z,79.84
2022-12-19T12:35:56.480Z,82.53
2022-12-19T12:39:24.345Z,84.36
2022-12-19T12:42:33.532Z,84.83
2022-12-19T12:45:40.155Z,85.40
2022-12-19T12:48:38.081Z,85.43
2022-12-19T12:51:25.548Z,86.16
2022-12-19T12:54:14.824Z,86.86
2022-12-19T12:57:01.488Z,87.74
2022-12-19T12:59:47.732Z,88.72
2022-12-19T13:02:33.327Z,88.93
2022-12-19T13:11:10.436Z,90.52
2022-12-19T13:13:58.067Z,91.09
2022-12-19T13:16:43.594Z,91.24
2022-12-19T13:19:34.389Z,91.39
2022-12-19T13:22:41.800Z,92.06
2022-12-19T13:25:27.111Z,92.18
2022-12-19T13:28:21.785Z,92.46
2022-12-19T13:31:19.771Z,92.12
2022-12-19T13:34:17.422Z,93.14
2022-12-19T13:39:49.937Z,93.35
2022-12-19T13:40:34.136Z,93.46
2022-12-19T13:43:42.444Z,93.49
2022-12-19T13:46:42.566Z,94.55
2022-12-19T13:49:34.780Z,94.67
2022-12-19T13:52:20.746Z,94.95
2022-12-19T13:55:14.135Z,95.59
2022-12-19T13:58:04.369Z,95.13
2022-12-19T14:00:53.949Z,95.38
2022-12-19T14:03:42.559Z,95.41
2022-12-19T14:06:30.979Z,96.09
2022-12-19T14:11:25.255Z,95.78
2022-12-19T14:13:51.144Z,96.12
2022-12-19T14:16:15.187Z,96.23
2022-12-19T14:19:00.636Z,96.33
2022-12-19T14:22:05.442Z,97.14
2022-12-19T14:25:33.210Z,98.42
2022-12-19T14:28:17.737Z,98.43
2022-12-19T14:31:16.508Z,98.79
2022-12-19T14:34:35.466Z,98.59
2022-12-19T14:38:03.843Z,99.03
2022-12-19T14:41:00.200Z,99.21
2022-12-19T14:43:58.791Z,99.15
2022-12-19T14:52:50.943Z,99.21
2022-12-19T14:54:38.004Z,99.41
2022-12-19T14:58:50.903Z,99.43
2022-12-19T15:01:10.315Z,99.75
2022-12-19T15:04:50.555Z,100.00
2022-12-19T15:07:14.931Z,99.93
2022-12-19T15:11:03.940Z,100.00
2022-12-19T15:14:47.270Z,100.00
2022-12-19T15:16:30.550Z,100.00
2022-12-19T15:19:15.739Z,100.00
2022-12-19T15:22:01.123Z,100.00
2022-12-19T15:24:46.621Z,100.00
2022-12-19T15:27:31.886Z,100.00
2022-12-19T15:30:20.576Z,100.00
2022-12-19T15:33:13.214Z,100.00
2022-12-19T15:35:58.501Z,100.00
2022-12-19T15:38:44.019Z,100.00
2022-12-19T15:41:29.571Z,100.00
2022-12-19T15:44:31.293Z,100.00
2022-12-19T15:47:25.701Z,100.00
2022-12-19T15:50:18.627Z,100.00
2022-12-19T15:53:32.780Z,100.00
2022-12-19T15:56:31.790Z,100.00
2022-12-19T15:59:22.962Z,100.00
2022-12-19T16:02:27.996Z,100.00
2022-12-19T16:05:24.951Z,100.00
2022-12-19T16:08:21.343Z,100.00
2022-12-19T16:11:06.600Z,100.00
2022-12-19T16:13:57.925Z,100.00
2022-12-19T16:16:46.530Z,100.00
2022-12-19T16:19:32.201Z,100.00
2022-12-19T16:22:23.711Z,100.00
2022-12-19T16:25:11.469Z,100.00
2022-12-19T16:27:58.686Z,100.00
2022-12-19T16:30:44.533Z,100.00
2022-12-19T16:33:31.151Z,100.00
2022-12-19T16:36:16.298Z,100.00
2022-12-19T16:39:01.558Z,100.00
2022-12-19T16:41:47.346Z,100.00
2022-12-19T16:44:34.751Z,100.00
2022-12-19T16:47:19.800Z,100.00
2022-12-19T16:50:17.483Z,100.00
2022-12-19T16:53:02.590Z,100.00
2022-12-19T16:55:49.774Z,100.00
2022-12-19T16:58:41.306Z,100.00
2022-12-19T17:01:28.912Z,100.00
2022-12-19T17:04:17.507Z,100.00
2022-12-19T17:07:10.882Z,100.00
2022-12-19T17:09:56.158Z,100.00
2022-12-19T17:12:42.580Z,100.00
2022-12-19T17:15:34.283Z,100.00
2022-12-19T17:18:31.467Z,100.00
2022-12-19T17:21:22.111Z,100.00
2022-12-19T17:24:12.893Z,100.00
2022-12-19T17:26:58.056Z,100.00
2022-12-19T17:29:43.947Z,100.00
2022-12-19T17:32:29.524Z,100.00
2022-12-19T17:35:27.364Z,100.00
2022-12-19T17:38:15.280Z,100.00
2022-12-19T17:41:00.540Z,100.00
2022-12-19T17:43:45.810Z,100.00
2022-12-19T17:46:31.339Z,100.00
2022-12-19T17:49:21.668Z,100.00
2022-12-19T17:52:13.504Z,100.00
2022-12-19T17:54:58.517Z,100.00
2022-12-19T17:57:44.344Z,100.00
2022-12-19T18:00:32.386Z,100.00
2022-12-19T18:03:25.815Z,100.00
2022-12-19T18:06:12.466Z,100.00
2022-12-19T18:08:57.773Z,100.00
2022-12-19T18:11:42.882Z,100.00
2022-12-19T18:14:28.391Z,100.00
2022-12-19T18:17:21.406Z,100.00
2022-12-19T18:20:31.921Z,100.00
2022-12-19T18:23:20.444Z,100.00
2022-12-19T18:26:05.945Z,100.00
2022-12-19T18:28:50.998Z,100.00
2022-12-19T18:31:36.812Z,100.00
2022-12-19T18:34:25.873Z,100.00
2022-12-19T18:37:17.278Z,100.00
2022-12-19T18:40:02.462Z,100.00
2022-12-19T18:42:48.784Z,100.00
2022-12-19T18:45:36.968Z,100.00
2022-12-19T18:48:32.875Z,100.00
2022-12-19T18:51:20.978Z,100.00
2022-12-19T18:54:15.286Z,100.00
2022-12-19T18:57:00.615Z,100.00
2022-12-19T18:59:47.650Z,100.00
2022-12-19T19:02:33.371Z,100.00
2022-12-19T19:05:22.162Z,100.00
2022-12-19T19:08:16.313Z,100.00
2022-12-19T19:11:03.554Z,100.00
2022-12-19T19:13:49.288Z,100.00
2022-12-19T19:16:36.962Z,100.00
2022-12-19T19:19:21.998Z,100.00
2022-12-19T19:22:07.233Z,100.00
2022-12-19T19:24:52.669Z,100.00
2022-12-19T19:27:39.829Z,100.00
2022-12-19T19:30:25.219Z,100.00
2022-12-19T19:33:19.960Z,100.00
2022-12-19T19:36:12.309Z,100.00
2022-12-19T19:38:59.025Z,100.00
2022-12-19T19:41:44.523Z,100.00
2022-12-19T19:44:30.079Z,100.00
2022-12-19T19:47:15.535Z,100.00
2022-12-19T19:50:00.793Z,100.00
2022-12-19T19:52:46.297Z,100.00
2022-12-19T19:55:31.644Z,100.00
2022-12-19T19:58:16.840Z,100.00
2022-12-19T20:01:08.141Z,100.00
2022-12-19T20:03:53.602Z,100.00
2022-12-19T20:06:38.765Z,100.00
2022-12-19T20:09:23.816Z,100.00
2022-12-19T20:12:09.351Z,100.00
2022-12-19T20:14:54.540Z,100.00
2022-12-19T20:17:40.624Z,100.00
2022-12-19T20:20:26.081Z,100.00
2022-12-19T20:23:11.537Z,100.00
2022-12-19T20:26:01.527Z,100.00
2022-12-19T20:28:49.437Z,99.88
2022-12-19T20:31:35.205Z,99.28
2022-12-19T20:34:20.362Z,99.63
2022-12-19T20:37:05.827Z,99.71
2022-12-19T20:39:52.758Z,99.37
2022-12-19T20:42:38.344Z,99.26
2022-12-19T20:45:23.423Z,99.53
2022-12-19T20:48:09.244Z,99.20
2022-12-19T20:50:59.280Z,99.07
2022-12-19T20:53:45.014Z,99.46
2022-12-19T20:56:30.875Z,98.48
2022-12-19T20:59:16.573Z,98.10
2022-12-19T21:02:02.585Z,97.93
2022-12-19T21:04:48.324Z,98.83
2022-12-19T21:07:33.835Z,98.37
2022-12-19T21:10:18.885Z,97.73
2022-12-19T21:13:04.606Z,97.55
2022-12-19T21:15:54.505Z,97.70
2022-12-19T21:18:43.826Z,97.48
2022-12-19T21:21:29.470Z,97.25
2022-12-19T21:24:14.801Z,96.69
2022-12-19T21:27:00.134Z,96.82
2022-12-19T21:29:45.522Z,97.18
2022-12-19T21:32:30.701Z,96.90
2022-12-19T21:35:16.292Z,97.02
2022-12-19T21:38:01.790Z,97.50
2022-12-19T21:40:47.583Z,97.24
2022-12-19T21:43:34.364Z,96.77
2022-12-19T21:46:22.390Z,97.19
2022-12-19T21:49:08.670Z,97.01
2022-12-19T21:51:53.828Z,96.79
2022-12-19T21:54:39.067Z,96.97
2022-12-19T21:57:24.274Z,96.99
2022-12-19T22:00:12.936Z,96.27
2022-12-19T22:03:15.111Z,95.50
2022-12-19T22:06:01.353Z,96.41
2022-12-19T22:08:47.055Z,95.31
2022-12-19T22:11:32.204Z,95.27
2022-12-19T22:14:18.162Z,94.83
2022-12-19T22:17:03.514Z,94.65
2022-12-19T22:19:48.997Z,94.39
2022-12-19T22:22:34.365Z,94.21
2022-12-19T22:25:19.478Z,94.57
2022-12-19T22:28:05.455Z,94.71
2022-12-19T22:30:50.704Z,94.19
2022-12-19T22:33:35.872Z,93.90
2022-12-19T22:36:28.060Z,94.80
2022-12-19T22:39:17.780Z,94.48
2022-12-19T22:42:03.093Z,93.34
2022-12-19T22:44:48.255Z,93.42
2022-12-19T22:47:33.649Z,93.54
2022-12-19T22:50:19.671Z,93.19
2022-12-19T22:53:12.554Z,93.12
2022-12-19T22:56:06.126Z,93.29
2022-12-19T22:58:53.331Z,92.80
2022-12-19T23:01:44.245Z,92.71
2022-12-19T23:04:30.025Z,92.17
2022-12-19T23:07:16.225Z,92.44
2022-12-19T23:10:02.794Z,92.15
2022-12-19T23:12:50.628Z,91.98
2022-12-19T23:15:35.715Z,91.60
2022-12-19T23:18:20.823Z,92.33
2022-12-19T23:21:10.285Z,91.47
2022-12-19T23:23:56.341Z,91.91
2022-12-19T23:26:41.579Z,91.80
2022-12-19T23:29:26.763Z,91.58
2022-12-19T23:32:14.275Z,91.51
2022-12-19T23:34:59.811Z,90.80
2022-12-19T23:37:44.985Z,91.51
2022-12-19T23:40:30.231Z,91.31
2022-12-19T23:43:16.246Z,91.92
2022-12-19T23:46:12.181Z,90.47
2022-12-19T23:48:57.496Z,90.12
2022-12-19T23:51:43.078Z,90.73
2022-12-19T23:54:28.192Z,90.71
2022-12-19T23:57:13.498Z,90.25
2022-12-19T23:59:59.264Z,89.53
